Time;durP1;ratioP1;P1;durP2;ratioP2;P2;SDS_P1;SDS_P2;PMS_P1;PMS_P2;Temp;Humidity;BMP_temperature;BMP_pressure;BME280_temperature;BME280_humidity;BME280_pressure;Samples;Min_cycle;Max_cycle;Signal;HPM_P1;HPM_P2
2021/03/10 00:01:11;;;;;;;;;;;;;;;2.39;55.59;102407.17;1717654;83;21723;-73
2021/03/10 00:03:43;;;;;;;5.77;3.13;;;;;;;2.39;55.30;102411.27;1715240;83;20271;-72
2021/03/10 00:06:34;;;;;;;5.53;2.63;;;;;;;2.39;55.26;102408.53;1711010;83;21355;-73
2021/03/10 00:09:07;;;;;;;7.97;3.13;;;;;;;2.41;55.41;102411.95;1715009;83;21894;-72
2021/03/10 00:11:40;;;;;;;4.92;2.45;;;;;;;2.41;55.41;102405.11;1715105;83;21209;-72
2021/03/10 00:14:12;;;;;;;5.87;2.53;;;;;;;2.39;55.64;102412.64;1715288;83;21241;-73
2021/03/10 00:16:45;;;;;;;4.07;2.00;;;;;;;2.34;55.75;102398.58;1715088;83;21352;-72
2021/03/10 00:19:17;;;;;;;4.37;2.77;;;;;;;2.35;55.96;102404.40;1715035;83;21356;-72
2021/03/10 00:21:50;;;;;;;6.17;2.67;;;;;;;2.30;55.84;102402.16;1715107;83;21463;-73
2021/03/10 00:24:23;;;;;;;3.35;2.67;;;;;;;2.28;55.90;102417.88;1715109;83;21815;-72
2021/03/10 00:26:55;;;;;;;4.10;2.60;;;;;;;2.20;55.95;102404.69;1715339;83;21230;-71
2021/03/10 00:29:28;;;;;;;4.67;2.70;;;;;;;2.14;55.97;102402.08;1715041;83;21909;-71
2021/03/10 00:32:00;;;;;;;4.70;2.53;;;;;;;2.10;56.06;102407.55;1714983;83;21254;-70
2021/03/10 00:34:33;;;;;;;4.83;2.70;;;;;;;2.07;55.85;102405.63;1715082;83;21817;-71
2021/03/10 00:37:06;;;;;;;6.70;2.50;;;;;;;2.06;55.59;102405.28;1715400;83;21349;-72
2021/03/10 00:39:38;;;;;;;2.27;1.82;;;;;;;2.02;55.45;102403.38;1715180;83;21217;-72
2021/03/10 00:42:11;;;;;;;7.87;2.50;;;;;;;2.00;55.40;102394.98;1715092;83;21214;-70
2021/03/10 00:44:44;;;;;;;3.77;2.25;;;;;;;1.97;55.32;102403.01;1715973;83;21222;-71
2021/03/10 00:47:19;;;;;;;3.60;2.33;;;;;;;1.96;55.38;102397.72;1717235;83;21444;-70
2021/03/10 00:49:52;;;;;;;3.87;2.33;;;;;;;1.96;55.56;102401.30;1715046;83;21261;-70
2021/03/10 00:52:24;;;;;;;4.27;2.73;;;;;;;1.96;56.05;102397.72;1715042;83;21436;-71
2021/03/10 00:54:57;;;;;;;6.17;2.77;;;;;;;1.95;56.40;102392.73;1716952;83;21485;-69
2021/03/10 00:57:29;;;;;;;5.30;2.20;;;;;;;1.94;56.32;102388.29;1720474;83;21205;-69
2021/03/10 01:00:02;;;;;;;7.12;2.62;;;;;;;1.95;56.21;102387.77;1720608;83;21198;-72
2021/03/10 01:02:35;;;;;;;8.67;3.33;;;;;;;1.97;56.25;102396.69;1720758;83;21203;-71
2021/03/10 01:05:08;;;;;;;18.50;2.57;;;;;;;1.99;56.21;102382.31;1720679;83;21763;-71
2021/03/10 01:07:41;;;;;;;4.55;2.60;;;;;;;2.01;56.10;102387.98;1720635;83;21242;-71
2021/03/10 01:10:15;;;;;;;4.33;2.80;;;;;;;2.03;55.87;102385.09;1720298;83;21293;-71
2021/03/10 01:12:48;;;;;;;4.90;3.00;;;;;;;2.00;55.86;102394.98;1720320;83;21213;-71
2021/03/10 01:15:21;;;;;;;6.15;2.75;;;;;;;1.95;55.89;102382.28;1720548;83;21714;-70
2021/03/10 01:17:54;;;;;;;4.08;2.55;;;;;;;1.92;55.66;102394.95;1720554;83;21198;-71
2021/03/10 01:20:27;;;;;;;7.72;2.60;;;;;;;1.88;55.70;102385.33;1720561;83;21774;-71
2021/03/10 01:22:59;;;;;;;3.22;2.20;;;;;;;1.86;55.37;102384.64;1726861;82;21210;-71
2021/03/10 01:25:32;;;;;;;6.40;2.72;;;;;;;1.84;55.48;102382.59;1750432;82;21202;-71
2021/03/10 01:28:05;;;;;;;5.33;2.00;;;;;;;1.84;55.46;102378.48;1750146;82;21278;-71
2021/03/10 01:30:37;;;;;;;6.35;2.83;;;;;;;1.89;55.47;102381.60;1748583;82;21355;-69
2021/03/10 01:33:10;;;;;;;6.60;2.77;;;;;;;1.92;55.42;102389.47;1740922;82;21749;-71
2021/03/10 01:35:45;;;;;;;6.03;2.70;;;;;;;1.97;55.32;102383.00;1740832;82;21216;-70
2021/03/10 01:38:17;;;;;;;7.87;2.43;;;;;;;2.02;55.06;102386.11;1740646;82;21320;-71
2021/03/10 01:40:50;;;;;;;6.53;2.50;;;;;;;2.05;54.73;102393.98;1740836;82;21711;-71
2021/03/10 01:43:22;;;;;;;4.33;2.17;;;;;;;2.08;54.70;102395.88;1745870;82;21762;-73
2021/03/10 01:45:54;;;;;;;5.10;2.80;;;;;;;2.08;54.43;102399.16;1749693;82;21340;-71
2021/03/10 01:48:27;;;;;;;3.97;2.37;;;;;;;2.08;54.29;102391.77;1735873;82;21390;-70
2021/03/10 01:51:05;;;;;;;8.63;2.40;;;;;;;2.09;54.12;102390.75;1746761;82;21333;-70
2021/03/10 01:53:38;;;;;;;5.50;2.90;;;;;;;2.05;53.95;102396.23;1750076;82;21395;-71
2021/03/10 01:56:10;;;;;;;5.10;2.73;;;;;;;2.03;53.83;102394.67;1748183;82;21336;-72
2021/03/10 01:58:43;;;;;;;4.57;2.70;;;;;;;1.97;53.87;102387.11;1741652;82;21723;-70
2021/03/10 02:01:15;;;;;;;3.90;2.58;;;;;;;1.93;53.74;102387.95;1702918;82;21198;-71
2021/03/10 02:03:49;;;;;;;2.47;1.90;;;;;;;1.92;53.63;102375.78;1737228;82;21360;-72
2021/03/10 02:06:49;;;;;;;4.60;2.10;;;;;;;1.89;53.70;102371.48;1733429;81;21198;-70
2021/03/10 02:10:04;;;;;;;6.53;2.93;;;;;;;1.88;53.89;102371.64;1740903;82;21297;-72
2021/03/10 02:12:59;;;;;;;4.27;2.70;;;;;;;1.87;54.31;102367.19;1741548;82;21403;-71
2021/03/10 02:15:58;;;;;;;6.40;2.97;;;;;;;1.83;54.65;102369.93;1735186;82;21438;-72
2021/03/10 02:18:52;;;;;;;2.77;2.30;;;;;;;1.79;54.77;102369.89;1737289;82;21249;-73
2021/03/10 02:21:30;;;;;;;5.10;2.58;;;;;;;1.80;54.78;102381.19;1736405;82;21933;-72
2021/03/10 02:24:32;;;;;;;3.70;2.37;;;;;;;1.81;54.81;102394.72;1728511;81;21372;-71
2021/03/10 02:27:32;;;;;;;3.17;1.90;;;;;;;1.82;54.58;102401.03;1743386;82;21340;-72
2021/03/10 02:30:08;;;;;;;3.37;2.20;;;;;;;1.81;54.63;102399.32;1737333;81;21186;-71
2021/03/10 02:32:43;;;;;;;7.27;2.93;;;;;;;1.80;54.56;102396.24;1737306;81;21269;-71
2021/03/10 02:35:16;;;;;;;8.00;2.33;;;;;;;1.80;54.69;102398.98;1737328;82;21193;-71
2021/03/10 02:37:51;;;;;;;4.00;1.77;;;;;;;1.81;54.73;102402.94;1737512;82;21339;-70
2021/03/10 02:40:26;;;;;;;3.57;2.37;;;;;;;1.85;54.56;102405.67;1737465;82;21201;-72
2021/03/10 02:42:59;;;;;;;5.70;2.20;;;;;;;1.80;54.29;102393.01;1742861;82;21858;-70
2021/03/10 02:45:31;;;;;;;7.60;2.83;;;;;;;1.78;54.32;102397.77;1743396;81;21491;-70
2021/03/10 02:48:04;;;;;;;6.30;2.45;;;;;;;1.77;54.34;102400.69;1737286;82;21890;-68
2021/03/10 02:50:39;;;;;;;7.30;2.40;;;;;;;1.76;54.28;102410.77;1740978;82;21400;-72
2021/03/10 02:53:11;;;;;;;;;;;;;;;1.77;54.32;102407.53;1747181;82;21214;-70
2021/03/10 02:55:43;;;;;;;7.30;2.20;;;;;;;1.79;54.04;102398.64;1741707;82;20216;-70
2021/03/10 02:58:16;;;;;;;3.87;2.30;;;;;;;1.78;53.74;102391.45;1740454;82;21201;-71
2021/03/10 03:00:48;;;;;;;5.53;2.20;;;;;;;1.76;53.71;102397.08;1740679;82;21253;-70
2021/03/10 03:03:22;;;;;;;10.90;3.47;;;;;;;1.73;53.85;102401.49;1741445;82;21260;-71
2021/03/10 03:05:54;;;;;;;8.85;2.85;;;;;;;1.70;53.94;102389.52;1742500;82;21242;-67
2021/03/10 03:08:27;;;;;;;2.73;2.07;;;;;;;1.66;54.00;102382.63;1736182;82;21208;-70
2021/03/10 03:11:00;;;;;;;6.10;2.98;;;;;;;1.64;54.13;102377.84;1740595;82;21257;-69
2021/03/10 03:13:33;;;;;;;5.90;2.45;;;;;;;1.62;54.14;102367.58;1744876;82;21384;-71
2021/03/10 03:16:05;;;;;;;2.70;1.90;;;;;;;1.60;54.19;102375.59;1741403;82;21209;-71
2021/03/10 03:18:38;;;;;;;6.50;2.40;;;;;;;1.60;54.23;102385.17;1750307;82;21692;-71
2021/03/10 03:21:11;;;;;;;3.03;2.00;;;;;;;1.59;54.09;102377.99;1750076;82;21431;-72
2021/03/10 03:23:43;;;;;;;4.60;2.40;;;;;;;1.60;54.15;102378.34;1745340;82;21363;-71
2021/03/10 03:26:18;;;;;;;5.22;2.25;;;;;;;1.60;53.87;102372.86;1713021;82;21209;-73
2021/03/10 03:28:52;;;;;;;4.67;2.47;;;;;;;1.56;53.93;102368.22;1743314;82;21209;-71
2021/03/10 03:31:25;;;;;;;4.97;2.67;;;;;;;1.58;53.56;102387.19;1743248;82;21213;-71
2021/03/10 03:33:57;;;;;;;5.03;2.77;;;;;;;1.52;53.45;102367.31;1749222;82;21340;-71
2021/03/10 03:36:30;;;;;;;5.40;2.10;;;;;;;1.50;53.42;102364.77;1747987;82;21221;-74
2021/03/10 03:39:04;;;;;;;6.20;2.52;;;;;;;1.52;53.51;102364.58;1744186;82;21359;-74
2021/03/10 03:41:37;;;;;;;5.97;2.63;;;;;;;1.52;53.43;102355.87;1713132;82;21202;-74
2021/03/10 03:44:09;;;;;;;6.93;3.10;;;;;;;1.51;53.39;102361.00;1745534;82;21221;-74
2021/03/10 03:46:42;;;;;;;4.25;2.65;;;;;;;1.51;53.33;102353.29;1750262;82;21356;-74
2021/03/10 03:49:15;;;;;;;3.20;2.00;;;;;;;1.52;52.85;102350.40;1749831;82;21340;-75
2021/03/10 03:51:48;;;;;;;3.92;2.45;;;;;;;1.50;52.84;102349.71;1744342;82;21350;-70
2021/03/10 03:54:21;;;;;;;4.42;2.12;;;;;;;1.51;52.79;102346.45;1744360;82;21201;-74
2021/03/10 03:56:53;;;;;;;3.73;2.37;;;;;;;1.53;52.73;102362.22;1740449;82;21351;-72
2021/03/10 03:59:26;;;;;;;4.07;2.20;;;;;;;1.52;52.63;102352.27;1740317;81;21402;-70
2021/03/10 04:01:58;;;;;;;10.13;2.43;;;;;;;1.51;52.46;102340.98;1732550;82;21195;-72
2021/03/10 04:04:31;;;;;;;4.62;2.45;;;;;;;1.48;52.37;102342.68;1728534;82;21264;-74
2021/03/10 04:07:04;;;;;;;3.87;2.30;;;;;;;1.49;52.19;102353.97;1720457;82;21272;-72
2021/03/10 04:09:37;;;;;;;3.90;2.30;;;;;;;1.47;52.07;102347.81;1720482;82;21410;-73
2021/03/10 04:12:10;;;;;;;8.83;3.30;;;;;;;1.46;52.02;102358.38;1720337;83;22382;-70
2021/03/10 04:14:43;;;;;;;4.20;2.45;;;;;;;1.45;52.04;102356.17;1740454;82;21406;-72
2021/03/10 04:17:15;;;;;;;4.27;2.30;;;;;;;1.46;52.14;102352.91;1737799;82;21441;-72
2021/03/10 04:19:48;;;;;;;3.95;2.47;;;;;;;1.43;51.93;102358.22;1720396;83;21217;-72
2021/03/10 04:22:21;;;;;;;6.80;3.02;;;;;;;1.39;51.89;102358.18;1720690;83;21695;-70
2021/03/10 04:24:53;;;;;;;21.83;3.33;;;;;;;1.38;51.93;102351.49;1720348;83;21252;-73
2021/03/10 04:27:27;;;;;;;7.73;2.47;;;;;;;1.40;51.99;102354.42;1720462;83;21181;-71
2021/03/10 04:30:00;;;;;;;11.33;2.53;;;;;;;1.40;52.10;102358.52;1682143;84;21356;-71
2021/03/10 04:32:32;;;;;;;8.80;2.43;;;;;;;1.40;51.93;102350.31;1691934;83;21721;-71
2021/03/10 04:35:05;;;;;;;3.47;2.10;;;;;;;1.39;51.80;102359.55;1703943;82;21347;-73
2021/03/10 04:37:40;;;;;;;5.47;2.65;;;;;;;1.40;51.78;102357.16;1732883;82;21245;-71
2021/03/10 04:40:13;;;;;;;4.63;2.43;;;;;;;1.41;51.83;102351.19;1705493;83;21255;-73
2021/03/10 04:42:46;;;;;;;3.33;2.35;;;;;;;1.43;51.78;102350.51;1726636;82;21671;-73
2021/03/10 04:45:19;;;;;;;7.45;2.40;;;;;;;1.43;51.73;102354.61;1738848;82;21841;-74
2021/03/10 04:47:52;;;;;;;3.20;2.08;;;;;;;1.42;51.82;102357.84;1720459;83;21240;-69
2021/03/10 04:50:24;;;;;;;6.03;2.30;;;;;;;1.43;51.60;102343.67;1710882;84;21352;-71
2021/03/10 04:52:56;;;;;;;4.60;2.20;;;;;;;1.41;51.65;102361.60;1720565;83;21681;-71
2021/03/10 04:55:29;;;;;;;6.30;2.20;;;;;;;1.44;51.78;102352.22;1726299;82;21382;-69
2021/03/10 04:58:02;;;;;;;14.13;2.77;;;;;;;1.48;51.97;102370.05;1733945;81;21210;-70
2021/03/10 05:00:35;;;;;;;3.42;2.45;;;;;;;1.54;51.83;102358.45;1744807;81;21734;-70
2021/03/10 05:03:08;;;;;;;8.33;3.50;;;;;;;1.57;51.89;102345.80;1748934;82;21375;-73
2021/03/10 05:05:42;;;;;;;6.47;2.30;;;;;;;1.60;51.96;102352.34;1722267;82;21431;-73
2021/03/10 05:08:16;;;;;;;11.50;2.92;;;;;;;1.64;51.96;102366.89;1744404;80;21264;-72
2021/03/10 05:10:49;;;;;;;8.20;2.55;;;;;;;1.68;51.92;102353.74;1727305;82;21329;-70
2021/03/10 05:13:22;;;;;;;4.00;2.42;;;;;;;1.73;51.78;102365.06;1737957;82;21373;-73
2021/03/10 05:15:55;;;;;;;;;;;;;;;1.76;51.68;102348.30;1733076;82;21427;-71
2021/03/10 05:18:28;;;;;;;8.93;2.63;;;;;;;1.79;51.59;102352.94;1729175;82;20347;-72
2021/03/10 05:21:00;;;;;;;4.23;2.90;;;;;;;1.83;51.65;102350.23;1733206;82;21321;-68
2021/03/10 05:23:41;;;;;;;11.63;2.50;;;;;;;1.87;51.54;102364.45;1731862;82;21381;-71
2021/03/10 05:26:13;;;;;;;13.00;3.07;;;;;;;1.83;51.19;102358.45;1736203;81;21847;-73
2021/03/10 05:28:46;;;;;;;8.10;2.83;;;;;;;1.84;51.37;102354.69;1735440;82;21419;-75
2021/03/10 05:31:21;;;;;;;17.83;4.40;;;;;;;1.92;51.82;102353.88;1731895;82;21336;-73
2021/03/10 05:34:02;;;;;;;5.17;3.10;;;;;;;2.00;53.02;102353.91;1726722;82;21326;-70
2021/03/10 05:36:36;;;;;;;12.43;3.97;;;;;;;2.03;53.17;102364.55;1734050;82;21234;-72
2021/03/10 05:39:13;;;;;;;20.00;4.00;;;;;;;2.10;53.59;102365.59;1740100;81;21185;-73
2021/03/10 05:41:46;;;;;;;7.42;3.90;;;;;;;2.14;54.14;102380.16;1740653;81;21375;-77
2021/03/10 05:44:19;;;;;;;17.57;5.30;;;;;;;2.20;54.54;102373.19;1748300;82;21336;-73
2021/03/10 05:46:58;;;;;;;12.78;5.05;;;;;;;2.25;54.84;102373.52;1750188;82;21250;-72
2021/03/10 05:49:30;;;;;;;11.50;5.40;;;;;;;2.32;55.04;102377.34;1750086;82;21326;-68
2021/03/10 05:52:05;;;;;;;10.83;4.97;;;;;;;2.36;55.20;102375.97;1745178;82;21378;-73
2021/03/10 05:54:39;;;;;;;21.40;5.50;;;;;;;2.40;55.19;102378.20;1730792;82;21379;-74
2021/03/10 05:57:13;;;;;;;12.10;4.53;;;;;;;2.44;54.93;102377.39;1732207;82;21506;-73
2021/03/10 05:59:45;;;;;;;10.05;4.75;;;;;;;2.47;55.05;102375.67;1743383;82;21416;-73
2021/03/10 06:02:18;;;;;;;9.88;4.22;;;;;;;2.53;54.99;102377.74;1742239;82;21755;-74
2021/03/10 06:04:50;;;;;;;15.40;5.03;;;;;;;2.60;54.65;102380.16;1738743;82;21427;-74
2021/03/10 06:07:24;;;;;;;11.23;4.20;;;;;;;2.66;54.56;102383.59;1738443;82;21245;-74
2021/03/10 06:10:06;;;;;;;6.17;3.60;;;;;;;2.80;54.08;102392.53;1734684;81;21385;-72
2021/03/10 06:12:44;;;;;;;7.57;3.67;;;;;;;2.95;53.42;102389.48;1743500;82;21202;-74
2021/03/10 06:15:17;;;;;;;8.60;3.93;;;;;;;3.11;53.27;102382.13;1729467;82;21229;-72
2021/03/10 06:17:52;;;;;;;16.23;4.27;;;;;;;3.29;52.83;102402.53;1743684;82;21385;-73
2021/03/10 06:20:31;;;;;;;6.60;3.03;;;;;;;3.31;52.01;102399.13;1725200;82;21347;-73
2021/03/10 06:23:02;;;;;;;8.90;3.03;;;;;;;3.28;50.78;102407.68;1722378;82;21823;-72
2021/03/10 06:25:38;;;;;;;8.53;3.20;;;;;;;3.15;50.44;102386.76;1723409;82;21472;-72
2021/03/10 06:28:10;;;;;;;;;;;;;;;3.08;50.41;102397.58;1733941;82;21209;-72
2021/03/10 06:33:23;;;;;;;3.77;2.27;;;;;;;3.07;50.07;102389.50;1730455;82;21330;-74
2021/03/10 06:35:57;;;;;;;7.17;2.37;;;;;;;3.12;50.00;102394.81;1725988;82;21239;-73
2021/03/10 06:38:30;;;;;;;9.27;3.20;;;;;;;3.11;49.51;102380.76;1684894;82;21917;-73
2021/03/10 06:41:02;;;;;;;8.90;3.90;;;;;;;3.08;49.36;102403.06;1723639;82;21743;-74
2021/03/10 06:43:39;;;;;;;;;;;;;;;3.03;49.12;102397.72;1728976;82;21232;-73
2021/03/10 06:46:20;;;;;;;11.40;3.23;;;;;;;2.99;48.57;102402.69;1721546;82;20223;-74
2021/03/10 06:49:06;;;;;;;;;;;;;;;2.97;48.64;102399.27;1725253;82;21213;-75
2021/03/10 06:51:37;;;;;;;;;;;;;;;3.04;48.49;102407.16;1729327;82;20291;-74
2021/03/10 06:54:13;;;;;;;14.43;3.07;;;;;;;3.10;48.11;102409.22;1724108;82;20248;-74
2021/03/10 06:56:46;;;;;;;10.40;3.07;;;;;;;3.16;48.16;102400.81;1724443;82;21267;-74
2021/03/10 06:59:20;;;;;;;9.75;3.55;;;;;;;3.17;47.69;102399.81;1719661;82;21198;-73
2021/03/10 07:01:56;;;;;;;7.80;2.75;;;;;;;3.18;47.85;102407.01;1730711;82;21342;-75
2021/03/10 07:04:28;;;;;;;8.20;2.97;;;;;;;3.17;47.45;102410.25;1742476;81;21339;-74
2021/03/10 07:07:01;;;;;;;9.18;3.10;;;;;;;3.09;47.16;102425.84;1718433;82;21345;-74
2021/03/10 07:09:34;;;;;;;6.80;3.13;;;;;;;3.00;47.55;102423.59;1725795;82;21409;-75
2021/03/10 07:12:10;;;;;;;7.43;2.80;;;;;;;2.94;47.69;102427.55;1728148;83;21398;-72
2021/03/10 07:14:44;;;;;;;4.50;3.07;;;;;;;2.89;47.73;102427.19;1728168;83;21292;-74
2021/03/10 07:17:19;;;;;;;4.03;2.83;;;;;;;2.90;47.52;102428.40;1728455;83;21574;-74
2021/03/10 07:19:52;;;;;;;5.93;2.80;;;;;;;2.88;47.56;102422.20;1728317;83;21322;-72
2021/03/10 07:22:54;;;;;;;6.83;2.43;;;;;;;2.89;47.53;102431.30;1728299;81;21327;-73
2021/03/10 07:25:35;;;;;;;14.57;3.40;;;;;;;2.91;47.36;102408.67;1724975;83;21839;-76
2021/03/10 07:28:24;;;;;;;8.63;2.93;;;;;;;2.97;47.55;102412.11;1724604;83;21190;-75
2021/03/10 07:30:56;;;;;;;6.90;2.37;;;;;;;3.05;47.32;102412.98;1724789;83;21170;-77
2021/03/10 07:33:29;;;;;;;11.80;2.70;;;;;;;3.11;46.48;102438.91;1725056;81;21213;-72
2021/03/10 07:36:03;;;;;;;5.22;2.85;;;;;;;3.07;46.44;102420.52;1720341;83;21279;-73
2021/03/10 07:38:41;;;;;;;11.20;3.37;;;;;;;3.06;46.45;102413.86;1728440;83;21363;-72
2021/03/10 07:41:15;;;;;;;5.23;2.63;;;;;;;3.05;46.63;102429.98;1712450;82;21405;-73
2021/03/10 07:43:50;;;;;;;3.53;2.40;;;;;;;3.09;46.22;102429.96;1720217;82;21220;-74
2021/03/10 07:46:34;;;;;;;10.37;2.50;;;;;;;3.08;45.93;102416.77;1728270;83;21434;-74
2021/03/10 07:49:24;;;;;;;6.70;3.33;;;;;;;3.12;45.57;102434.59;1728601;83;21712;-73
2021/03/10 07:52:15;;;;;;;10.77;3.03;;;;;;;3.08;45.61;102417.27;1720346;82;21169;-74
2021/03/10 07:54:50;;;;;;;8.80;4.07;;;;;;;3.03;45.64;102418.29;1730063;81;21702;-74
2021/03/10 07:57:24;;;;;;;7.00;3.00;;;;;;;3.08;45.90;102431.86;1714464;82;21814;-72
2021/03/10 08:00:03;;;;;;;8.53;2.90;;;;;;;3.14;45.63;102420.71;1732474;82;21253;-74
2021/03/10 08:02:48;;;;;;;4.03;2.40;;;;;;;3.14;44.97;102439.92;1740910;81;21177;-74
2021/03/10 08:05:25;;;;;;;7.78;2.58;;;;;;;3.05;45.17;102414.89;1727333;82;21388;-75
2021/03/10 08:08:14;;;;;;;5.30;2.47;;;;;;;3.10;45.67;102406.98;1720962;82;21344;-75
2021/03/10 08:10:50;;;;;;;5.23;2.80;;;;;;;3.17;45.54;102408.88;1722901;82;21856;-72
2021/03/10 08:13:23;;;;;;;7.20;4.40;;;;;;;3.28;45.53;102418.66;1728352;82;21348;-74
2021/03/10 08:16:06;;;;;;;4.40;2.75;;;;;;;3.32;45.24;102409.06;1707503;82;21201;-73
2021/03/10 08:18:39;;;;;;;11.70;3.10;;;;;;;3.24;45.56;102415.93;1707360;83;21222;-72
2021/03/10 08:21:12;;;;;;;;;;;;;;;3.22;45.79;102410.61;1710039;84;21726;-75
2021/03/10 08:23:44;;;;;;;7.70;2.83;;;;;;;3.29;46.08;102402.03;1707642;82;20291;-72
2021/03/10 08:26:21;;;;;;;15.73;3.87;;;;;;;3.35;46.08;102394.98;1720437;83;21296;-75
2021/03/10 08:28:53;;;;;;;5.97;2.93;;;;;;;3.37;46.09;102402.55;1720274;83;21269;-72
2021/03/10 08:31:26;;;;;;;7.87;3.50;;;;;;;3.34;46.33;102417.98;1720185;83;21245;-74
2021/03/10 08:33:58;;;;;;;6.43;3.40;;;;;;;3.27;46.51;102409.59;1720324;83;21213;-75
2021/03/10 08:36:34;;;;;;;6.77;3.30;;;;;;;3.23;46.30;102392.23;1720592;83;21205;-72
2021/03/10 08:39:13;;;;;;;4.70;2.90;;;;;;;3.08;46.75;102388.47;1720453;83;21217;-76
2021/03/10 08:41:52;;;;;;;6.20;3.30;;;;;;;3.13;47.05;102406.66;1720386;83;21221;-74
2021/03/10 08:44:25;;;;;;;7.40;3.57;;;;;;;3.21;46.92;102399.80;1720230;83;21209;-74
2021/03/10 08:46:58;;;;;;;7.83;3.72;;;;;;;3.26;46.58;102397.40;1720704;83;21257;-74
2021/03/10 08:49:32;;;;;;;4.90;3.12;;;;;;;3.24;46.45;102394.82;1720461;83;21252;-76
2021/03/10 08:52:13;;;;;;;7.67;4.00;;;;;;;3.20;46.58;102402.20;1720186;83;21221;-74
2021/03/10 08:55:00;;;;;;;13.07;4.50;;;;;;;3.17;46.80;102402.02;1720144;83;21262;-74
2021/03/10 08:57:36;;;;;;;9.27;3.63;;;;;;;3.18;46.68;102400.98;1720108;83;21229;-72
2021/03/10 09:00:15;;;;;;;10.50;4.07;;;;;;;3.22;46.21;102401.00;1720392;83;21209;-74
2021/03/10 09:02:50;;;;;;;7.90;3.67;;;;;;;3.13;46.32;102387.45;1696069;83;21281;-76
2021/03/10 09:05:30;;;;;;;7.37;3.80;;;;;;;3.10;46.59;102389.15;1714891;83;21237;-73
2021/03/10 09:08:08;;;;;;;10.90;4.20;;;;;;;3.07;47.00;102404.59;1726592;82;21501;-72
2021/03/10 09:10:53;;;;;;;12.07;3.87;;;;;;;3.11;47.11;102388.98;1729580;82;21265;-74
2021/03/10 09:13:30;;;;;;;8.60;3.53;;;;;;;3.17;47.20;102415.74;1722979;82;21811;-73
2021/03/10 09:16:13;;;;;;;6.67;3.70;;;;;;;3.21;47.09;102389.69;1726505;82;21199;-72
2021/03/10 09:19:00;;;;;;;12.50;4.57;;;;;;;3.24;47.17;102387.95;1722053;82;21342;-76
2021/03/10 09:21:44;;;;;;;15.80;4.40;;;;;;;3.27;47.26;102388.13;1725888;82;21216;-73
2021/03/10 09:24:19;;;;;;;11.20;4.03;;;;;;;3.29;47.26;102395.67;1726683;82;21400;-74
2021/03/10 09:26:53;;;;;;;7.47;4.53;;;;;;;3.30;47.05;102390.55;1724816;81;21234;-75
2021/03/10 09:29:26;;;;;;;7.07;4.13;;;;;;;3.33;46.96;102381.95;1730902;82;21384;-75
2021/03/10 09:31:59;;;;;;;9.57;4.10;;;;;;;3.37;47.10;102388.83;1693551;83;22374;-74
2021/03/10 09:34:35;;;;;;;7.70;4.77;;;;;;;3.41;47.19;102387.44;1727864;82;21413;-75
2021/03/10 09:37:12;;;;;;;8.47;4.67;;;;;;;3.47;47.44;102384.00;1724126;82;21287;-74
2021/03/10 09:39:51;;;;;;;15.07;5.47;;;;;;;3.58;47.64;102386.40;1721749;82;21740;-74
2021/03/10 09:42:30;;;;;;;8.20;4.47;;;;;;;3.73;47.49;102392.91;1739066;82;21174;-74
2021/03/10 09:45:07;;;;;;;8.93;4.70;;;;;;;3.83;46.95;102383.95;1736637;81;21838;-73
2021/03/10 09:47:51;;;;;;;17.07;5.33;;;;;;;3.85;46.70;102372.30;1734802;82;21261;-74
2021/03/10 09:50:30;;;;;;;10.77;5.10;;;;;;;3.89;46.89;102387.36;1727319;83;21332;-72
2021/03/10 09:53:19;;;;;;;7.67;4.60;;;;;;;3.87;46.27;102408.17;1731497;83;21703;-74
2021/03/10 09:56:08;;;;;;;14.00;5.30;;;;;;;3.68;46.14;102380.22;1731538;83;21212;-71
2021/03/10 09:59:00;;;;;;;13.50;6.47;;;;;;;3.53;46.49;102366.84;1731362;83;21375;-74
2021/03/10 10:01:50;;;;;;;9.77;5.27;;;;;;;3.51;46.92;102375.77;1731544;82;21190;-71
2021/03/10 10:04:30;;;;;;;13.05;5.17;;;;;;;3.54;46.97;102391.38;1732892;81;21423;-77
2021/03/10 10:07:07;;;;;;;10.23;4.67;;;;;;;3.47;46.89;102393.61;1740228;82;21393;-75
2021/03/10 10:09:58;;;;;;;8.00;4.87;;;;;;;3.33;47.20;102397.92;1740432;82;21227;-74
2021/03/10 10:12:33;;;;;;;8.33;4.63;;;;;;;3.15;47.44;102368.92;1740386;82;21367;-71
2021/03/10 10:15:09;;;;;;;8.50;4.50;;;;;;;3.05;47.95;102368.26;1720859;82;21330;-77
2021/03/10 10:17:45;;;;;;;8.03;5.03;;;;;;;3.03;48.27;102373.03;1740418;82;21838;-74
2021/03/10 10:20:21;;;;;;;12.73;5.60;;;;;;;2.97;48.56;102374.58;1740192;82;21377;-74
2021/03/10 10:22:54;;;;;;;9.00;5.17;;;;;;;2.93;48.65;102354.00;1740410;82;21874;-77
2021/03/10 10:25:30;;;;;;;10.67;4.90;;;;;;;2.93;48.90;102375.09;1741715;81;21763;-76
2021/03/10 10:28:08;;;;;;;10.43;5.70;;;;;;;2.93;49.12;102381.42;1710425;82;21229;-75
2021/03/10 10:30:41;;;;;;;15.08;5.85;;;;;;;2.92;49.39;102350.05;1679099;85;21456;-74
2021/03/10 10:33:14;;;;;;;10.73;5.60;;;;;;;2.95;49.37;102341.49;1681256;84;21898;-75
2021/03/10 10:35:49;;;;;;;8.00;5.00;;;;;;;3.00;49.43;102341.84;1678858;84;21254;-76
2021/03/10 10:38:22;;;;;;;9.30;5.20;;;;;;;3.07;49.37;102335.48;1674981;84;21421;-78
2021/03/10 10:40:56;;;;;;;9.43;5.77;;;;;;;3.23;49.20;102342.34;1699560;82;21406;-76
2021/03/10 10:43:33;;;;;;;10.60;5.35;;;;;;;3.32;49.08;102345.94;1720685;82;21345;-75
2021/03/10 10:46:04;;;;;;;11.37;5.60;;;;;;;3.33;48.89;102335.30;1740481;82;21211;-73
2021/03/10 10:48:40;;;;;;;8.87;5.37;;;;;;;3.37;48.64;102362.22;1740349;82;21234;-75
2021/03/10 10:51:16;;;;;;;10.93;5.43;;;;;;;3.38;47.86;102352.98;1739404;82;21354;-77
2021/03/10 10:53:53;;;;;;;7.77;5.23;;;;;;;3.41;47.59;102334.78;1737968;82;21200;-75
2021/03/10 10:56:26;;;;;;;12.97;6.20;;;;;;;3.40;47.07;102333.58;1738905;82;21190;-73
2021/03/10 10:59:00;;;;;;;10.10;5.73;;;;;;;3.37;46.84;102326.55;1720394;83;21713;-78
2021/03/10 11:01:35;;;;;;;10.23;5.10;;;;;;;3.42;46.67;102331.00;1716568;83;21380;-76
2021/03/10 11:04:08;;;;;;;8.75;5.37;;;;;;;3.52;46.54;102333.56;1720536;83;21240;-73
2021/03/10 11:06:42;;;;;;;10.25;5.83;;;;;;;3.51;46.60;102327.23;1724104;81;21730;-75
2021/03/10 11:09:14;;;;;;;10.40;5.23;;;;;;;3.47;46.41;102348.31;1714845;83;21204;-74
2021/03/10 11:11:49;;;;;;;12.70;5.40;;;;;;;3.38;46.20;102323.30;1728517;82;21181;-75
2021/03/10 11:14:26;;;;;;;13.70;6.80;;;;;;;3.26;46.54;102315.95;1738303;82;21336;-77
2021/03/10 11:17:17;;;;;;;13.90;6.13;;;;;;;3.28;47.15;102318.49;1738229;82;21345;-76
2021/03/10 11:20:21;;;;;;;13.53;6.93;;;;;;;3.37;47.13;102349.03;1748957;82;21344;-77
2021/03/10 11:23:04;;;;;;;12.63;7.28;;;;;;;3.40;46.71;102315.73;1700664;82;21190;-76
2021/03/10 11:25:38;;;;;;;13.50;6.43;;;;;;;3.40;47.19;102313.86;1750180;82;21206;-75
2021/03/10 11:28:11;;;;;;;;;;;;;;;3.48;46.83;102298.73;1752663;82;21225;-74
2021/03/10 11:30:44;;;;;;;10.00;6.07;;;;;;;3.52;46.73;102296.50;1748611;82;20217;-73
2021/03/10 11:33:18;;;;;;;12.25;7.33;;;;;;;3.49;46.33;102309.22;1726381;82;21200;-73
2021/03/10 11:35:51;;;;;;;18.05;7.45;;;;;;;3.43;46.19;102281.09;1730445;82;21328;-74
2021/03/10 11:38:23;;;;;;;12.30;6.97;;;;;;;3.39;46.22;102275.60;1729032;82;21229;-74
2021/03/10 11:40:57;;;;;;;9.65;6.12;;;;;;;3.42;46.25;102282.13;1737175;82;21495;-74
2021/03/10 11:43:30;;;;;;;11.03;6.67;;;;;;;3.44;46.21;102278.19;1732997;82;21873;-72
2021/03/10 11:46:04;;;;;;;12.07;6.87;;;;;;;3.51;46.20;102293.42;1726249;82;21336;-77
2021/03/10 11:48:37;;;;;;;12.23;6.53;;;;;;;3.48;46.06;102291.04;1738906;82;21320;-75
2021/03/10 11:51:10;;;;;;;11.43;6.28;;;;;;;3.41;46.05;102278.52;1716123;82;21345;-75
2021/03/10 11:53:45;;;;;;;12.57;6.50;;;;;;;3.33;46.32;102284.53;1718487;82;21358;-74
2021/03/10 11:56:21;;;;;;;10.40;6.40;;;;;;;3.25;46.60;102278.53;1729979;82;21352;-79
2021/03/10 11:59:18;;;;;;;12.10;7.43;;;;;;;3.17;46.74;102258.52;1714269;82;21353;-78
2021/03/10 12:01:53;;;;;;;16.70;7.27;;;;;;;3.15;47.14;102253.70;1718801;82;21382;-77
2021/03/10 12:04:28;;;;;;;14.33;7.17;;;;;;;3.17;47.53;102248.91;1726948;82;21407;-77
2021/03/10 12:07:01;;;;;;;13.88;8.00;;;;;;;3.24;47.54;102248.55;1722374;82;21640;-77
2021/03/10 12:09:33;;;;;;;13.67;6.93;;;;;;;3.34;47.63;102263.78;1716185;82;21932;-74
2021/03/10 12:12:34;;;;;;;;;;;;;;;;;;;;;
2021/03/10 12:15:08;;;;;;;13.80;7.57;;;;;;;3.41;47.17;102263.42;1715098;83;21824;-76
2021/03/10 12:17:44;;;;;;;10.87;6.60;;;;;;;3.32;46.97;102243.91;1712261;82;21279;-75